Time;durP1;ratioP1;P1;durP2;ratioP2;P2;SDS_P1;SDS_P2;PMS_P1;PMS_P2;Temp;Humidity;BMP_temperature;BMP_pressure;BME280_temperature;BME280_humidity;BME280_pressure;Samples;Min_cycle;Max_cycle;Signal;HPM_P1;HPM_P2
2023/09/30 00:01:21;;;;;;;14.15;2.90;;;;;;;;;;5075043;28;20024;-62
2023/09/30 00:03:48;;;;;;;10.30;2.58;;;;;;;;;;5076188;28;20023;-62
2023/09/30 00:06:14;;;;;;;8.15;2.25;;;;;;;;;;5075378;27;20048;-63
2023/09/30 00:08:41;;;;;;;8.10;2.63;;;;;;;;;;5075350;28;20055;-63
2023/09/30 00:11:08;;;;;;;12.73;3.25;;;;;;;;;;5075637;28;20777;-63
2023/09/30 00:13:34;;;;;;;11.85;2.90;;;;;;;;;;5075269;28;20036;-62
2023/09/30 00:16:00;;;;;;;11.45;2.85;;;;;;;;;;5075066;28;20031;-63
2023/09/30 00:18:27;;;;;;;14.13;3.20;;;;;;;;;;5074722;28;20035;-63
2023/09/30 00:20:53;;;;;;;12.82;2.83;;;;;;;;;;5074226;28;20047;-63
2023/09/30 00:23:21;;;;;;;11.63;2.70;;;;;;;;;;5075034;28;20028;-63
2023/09/30 00:25:48;;;;;;;10.55;3.08;;;;;;;;;;5073903;28;20032;-62
2023/09/30 00:28:14;;;;;;;12.90;2.53;;;;;;;;;;5074798;28;20974;-62
2023/09/30 00:30:41;;;;;;;14.07;2.72;;;;;;;;;;5074548;28;21921;-62
2023/09/30 00:33:07;;;;;;;10.05;2.65;;;;;;;;;;5074370;28;20127;-62
2023/09/30 00:35:33;;;;;;;14.68;2.97;;;;;;;;;;5074837;28;20039;-63
2023/09/30 00:38:00;;;;;;;10.80;3.08;;;;;;;;;;5074001;28;20039;-62
2023/09/30 00:40:26;;;;;;;9.05;2.45;;;;;;;;;;5073710;28;20110;-62
2023/09/30 00:42:52;;;;;;;10.15;2.78;;;;;;;;;;5074189;28;20538;-62
2023/09/30 00:45:18;;;;;;;10.95;2.67;;;;;;;;;;5074014;28;20419;-63
2023/09/30 00:47:44;;;;;;;10.65;2.55;;;;;;;;;;5072406;28;20070;-63
2023/09/30 00:50:12;;;;;;;11.55;2.78;;;;;;;;;;5071723;28;20039;-62
2023/09/30 00:52:39;;;;;;;9.70;2.55;;;;;;;;;;5055784;28;20126;-62
2023/09/30 00:55:05;;;;;;;11.55;3.28;;;;;;;;;;5073002;28;20124;-62
2023/09/30 00:57:32;;;;;;;9.23;2.42;;;;;;;;;;5071298;28;21705;-62
2023/09/30 00:59:58;;;;;;;15.13;3.70;;;;;;;;;;5073171;28;20117;-62
2023/09/30 01:02:24;;;;;;;12.75;3.25;;;;;;;;;;5074176;28;20059;-62
2023/09/30 01:04:50;;;;;;;9.50;2.50;;;;;;;;;;5075081;28;20752;-62
2023/09/30 01:07:17;;;;;;;11.43;3.42;;;;;;;;;;5073274;28;20812;-63
2023/09/30 01:09:43;;;;;;;10.93;3.47;;;;;;;;;;5075116;28;20088;-63
2023/09/30 01:12:09;;;;;;;11.77;2.83;;;;;;;;;;5073106;28;20024;-63
2023/09/30 01:14:40;;;;;;;15.25;3.10;;;;;;;;;;5073849;28;20024;-63
2023/09/30 01:17:13;;;;;;;11.63;2.88;;;;;;;;;;5074175;28;20067;-63
2023/09/30 01:19:39;;;;;;;10.35;2.67;;;;;;;;;;5074428;28;20042;-62
2023/09/30 01:22:05;;;;;;;13.70;2.75;;;;;;;;;;5073537;28;20873;-62
2023/09/30 01:24:31;;;;;;;8.68;2.67;;;;;;;;;;5074404;28;20095;-63
2023/09/30 01:26:57;;;;;;;9.25;2.47;;;;;;;;;;5073966;28;20039;-63
2023/09/30 01:29:26;;;;;;;10.95;3.47;;;;;;;;;;5073834;28;20051;-63
2023/09/30 01:31:52;;;;;;;14.95;3.08;;;;;;;;;;5073379;28;20030;-63
2023/09/30 01:34:18;;;;;;;13.27;3.65;;;;;;;;;;5072751;28;20042;-63
2023/09/30 01:36:44;;;;;;;11.43;2.72;;;;;;;;;;5073408;28;20028;-63
2023/09/30 01:39:11;;;;;;;9.13;2.58;;;;;;;;;;5072623;28;20040;-63
2023/09/30 01:41:37;;;;;;;20.35;3.72;;;;;;;;;;5074089;28;20154;-62
2023/09/30 01:44:04;;;;;;;14.27;3.38;;;;;;;;;;5073636;28;20024;-63
2023/09/30 01:46:30;;;;;;;7.90;2.45;;;;;;;;;;5072156;28;20033;-62
2023/09/30 01:48:56;;;;;;;9.85;2.95;;;;;;;;;;5072601;28;20032;-62
2023/09/30 01:51:23;;;;;;;7.07;2.55;;;;;;;;;;5071613;28;20040;-62
2023/09/30 01:53:49;;;;;;;9.23;3.22;;;;;;;;;;5070754;28;20158;-62
2023/09/30 01:56:15;;;;;;;14.13;3.45;;;;;;;;;;5072025;28;20147;-63
2023/09/30 01:58:41;;;;;;;11.30;2.50;;;;;;;;;;5071814;28;20638;-62
2023/09/30 02:01:08;;;;;;;10.20;2.47;;;;;;;;;;5050180;28;21705;-63
2023/09/30 02:03:35;;;;;;;9.63;2.70;;;;;;;;;;5072918;28;20058;-62
2023/09/30 02:06:01;;;;;;;10.38;2.58;;;;;;;;;;5073617;28;20066;-63
2023/09/30 02:08:27;;;;;;;8.93;2.60;;;;;;;;;;5061817;28;21876;-63
2023/09/30 02:10:53;;;;;;;13.93;2.75;;;;;;;;;;5076871;28;21751;-63
2023/09/30 02:13:19;;;;;;;11.30;2.42;;;;;;;;;;5077552;27;20039;-63
2023/09/30 02:15:46;;;;;;;8.18;2.10;;;;;;;;;;5077397;28;20090;-63
2023/09/30 02:18:12;;;;;;;9.82;2.25;;;;;;;;;;5075674;28;20042;-63
2023/09/30 02:20:41;;;;;;;10.88;2.70;;;;;;;;;;5076832;27;20021;-62
2023/09/30 02:23:08;;;;;;;9.43;2.38;;;;;;;;;;5075609;27;20036;-63
2023/09/30 02:25:34;;;;;;;13.07;3.60;;;;;;;;;;5077137;27;20027;-62
2023/09/30 02:28:00;;;;;;;8.90;2.80;;;;;;;;;;5076975;28;20039;-63
2023/09/30 02:30:27;;;;;;;10.75;3.10;;;;;;;;;;5075828;28;20039;-63
2023/09/30 02:32:53;;;;;;;9.00;2.33;;;;;;;;;;5076389;27;20727;-62
2023/09/30 02:35:20;;;;;;;11.95;2.50;;;;;;;;;;5076296;28;20128;-62
2023/09/30 02:37:46;;;;;;;9.40;2.72;;;;;;;;;;5076320;28;20044;-62
2023/09/30 02:40:14;;;;;;;13.15;3.33;;;;;;;;;;5076735;28;20031;-62
2023/09/30 02:42:41;;;;;;;9.10;3.13;;;;;;;;;;5077530;28;20027;-62
2023/09/30 02:45:11;;;;;;;9.75;2.40;;;;;;;;;;5077090;28;20611;-62
2023/09/30 02:47:37;;;;;;;6.75;2.60;;;;;;;;;;5075921;28;20051;-62
2023/09/30 02:50:04;;;;;;;8.50;2.75;;;;;;;;;;5077559;27;20032;-63
2023/09/30 02:52:31;;;;;;;10.68;2.72;;;;;;;;;;5076150;27;20038;-62
2023/09/30 02:54:57;;;;;;;9.68;2.90;;;;;;;;;;5076105;28;20055;-62
2023/09/30 02:57:23;;;;;;;11.52;2.88;;;;;;;;;;5076600;28;20028;-62
2023/09/30 02:59:51;;;;;;;12.38;3.60;;;;;;;;;;5076230;28;20069;-62
2023/09/30 03:02:18;;;;;;;8.82;2.67;;;;;;;;;;5075932;28;20100;-62
2023/09/30 03:04:44;;;;;;;8.90;2.50;;;;;;;;;;5076422;28;20516;-62
2023/09/30 03:07:11;;;;;;;9.68;2.95;;;;;;;;;;5076989;28;20071;-62
2023/09/30 03:09:38;;;;;;;10.60;3.15;;;;;;;;;;5075848;28;20040;-63
2023/09/30 03:12:04;;;;;;;9.18;2.63;;;;;;;;;;5076927;27;20528;-63
2023/09/30 03:14:30;;;;;;;11.85;3.47;;;;;;;;;;5075915;28;20165;-62
2023/09/30 03:16:57;;;;;;;10.07;3.13;;;;;;;;;;5076355;28;20035;-63
2023/09/30 03:19:23;;;;;;;8.68;2.50;;;;;;;;;;5075422;28;20036;-62
2023/09/30 03:21:50;;;;;;;11.18;2.83;;;;;;;;;;5063545;27;20101;-63
2023/09/30 03:24:16;;;;;;;12.88;3.10;;;;;;;;;;5076610;28;21745;-63
2023/09/30 03:26:43;;;;;;;12.23;3.33;;;;;;;;;;5075541;28;20024;-62
2023/09/30 03:29:10;;;;;;;11.40;2.88;;;;;;;;;;5075187;28;20035;-62
2023/09/30 03:31:36;;;;;;;16.90;2.83;;;;;;;;;;5076275;28;20066;-62
2023/09/30 03:34:03;;;;;;;9.45;2.88;;;;;;;;;;5076234;27;20034;-63
2023/09/30 03:36:30;;;;;;;9.50;3.17;;;;;;;;;;5075520;27;20051;-63
2023/09/30 03:39:00;;;;;;;10.65;3.00;;;;;;;;;;5076042;28;20569;-62
2023/09/30 03:41:26;;;;;;;8.95;2.92;;;;;;;;;;5075243;27;20027;-62
2023/09/30 03:43:53;;;;;;;11.60;3.53;;;;;;;;;;5076215;28;20166;-62
2023/09/30 03:46:19;;;;;;;8.77;2.63;;;;;;;;;;5075416;28;20042;-63
2023/09/30 03:48:47;;;;;;;13.30;2.95;;;;;;;;;;5076916;28;20058;-63
2023/09/30 03:51:15;;;;;;;9.57;2.80;;;;;;;;;;5074003;28;20028;-62
2023/09/30 03:53:42;;;;;;;10.85;3.05;;;;;;;;;;5075456;27;20032;-63
2023/09/30 03:56:11;;;;;;;9.75;2.83;;;;;;;;;;5075881;28;20484;-62
2023/09/30 03:58:38;;;;;;;10.73;2.65;;;;;;;;;;5075563;28;20196;-63
2023/09/30 04:01:04;;;;;;;11.00;2.97;;;;;;;;;;5075007;28;20096;-63
2023/09/30 04:03:33;;;;;;;11.10;2.70;;;;;;;;;;5074990;28;21798;-62
2023/09/30 04:05:59;;;;;;;9.35;2.35;;;;;;;;;;5063559;27;20147;-63
2023/09/30 04:08:25;;;;;;;10.00;2.53;;;;;;;;;;5076627;28;20042;-63
2023/09/30 04:10:51;;;;;;;13.73;2.60;;;;;;;;;;5074119;28;20057;-62
2023/09/30 04:13:19;;;;;;;14.50;3.33;;;;;;;;;;5074075;28;20951;-62
2023/09/30 04:15:46;;;;;;;10.63;2.78;;;;;;;;;;5057309;27;20641;-62
2023/09/30 04:18:12;;;;;;;11.55;2.85;;;;;;;;;;5073870;28;20032;-62
2023/09/30 04:20:39;;;;;;;12.65;3.17;;;;;;;;;;5074061;28;20040;-63
2023/09/30 04:23:06;;;;;;;13.98;3.50;;;;;;;;;;5075073;28;20024;-62
2023/09/30 04:25:32;;;;;;;9.82;3.00;;;;;;;;;;5074348;28;20035;-62
2023/09/30 04:27:59;;;;;;;7.70;2.63;;;;;;;;;;5074812;27;20050;-62
2023/09/30 04:30:25;;;;;;;8.70;2.80;;;;;;;;;;5074190;28;20161;-62
2023/09/30 04:32:52;;;;;;;12.10;3.22;;;;;;;;;;5074883;28;20064;-63
2023/09/30 04:35:18;;;;;;;8.73;2.70;;;;;;;;;;5074535;28;21053;-63
2023/09/30 04:37:45;;;;;;;8.60;2.95;;;;;;;;;;5061986;28;20043;-63
2023/09/30 04:40:21;;;;;;;9.55;3.13;;;;;;;;;;5075520;28;20031;-62
2023/09/30 04:42:47;;;;;;;9.45;2.67;;;;;;;;;;5074320;28;20137;-62
2023/09/30 04:45:19;;;;;;;8.48;2.88;;;;;;;;;;5074140;28;20497;-62
2023/09/30 04:47:45;;;;;;;12.68;3.20;;;;;;;;;;5074839;28;20165;-62
2023/09/30 04:50:16;;;;;;;8.45;2.85;;;;;;;;;;5075474;28;20028;-63
2023/09/30 04:52:42;;;;;;;10.40;2.97;;;;;;;;;;5073822;28;20042;-62
2023/09/30 04:55:08;;;;;;;10.40;3.00;;;;;;;;;;5073627;28;20119;-62
2023/09/30 04:57:34;;;;;;;9.77;2.90;;;;;;;;;;5069880;28;20040;-63
2023/09/30 05:00:01;;;;;;;10.95;3.53;;;;;;;;;;5071879;28;20027;-62
2023/09/30 05:02:28;;;;;;;13.55;4.20;;;;;;;;;;5072776;28;20046;-62
2023/09/30 05:04:54;;;;;;;10.65;3.78;;;;;;;;;;5073243;28;20042;-62
2023/09/30 05:07:24;;;;;;;11.57;3.10;;;;;;;;;;5073062;28;20051;-62
2023/09/30 05:09:50;;;;;;;13.55;3.42;;;;;;;;;;5056719;28;20020;-63
2023/09/30 05:12:16;;;;;;;12.43;3.17;;;;;;;;;;5073769;28;20024;-62
2023/09/30 05:14:43;;;;;;;11.07;3.70;;;;;;;;;;5072995;28;20035;-62
2023/09/30 05:17:09;;;;;;;9.75;3.33;;;;;;;;;;5054982;28;20036;-62
2023/09/30 05:19:37;;;;;;;14.23;4.55;;;;;;;;;;5072620;28;20065;-63
2023/09/30 05:22:03;;;;;;;9.85;3.60;;;;;;;;;;5073661;28;20032;-62
2023/09/30 05:24:29;;;;;;;12.65;3.42;;;;;;;;;;5073464;28;20898;-62
2023/09/30 05:26:55;;;;;;;10.68;3.80;;;;;;;;;;5073743;28;20062;-62
2023/09/30 05:29:22;;;;;;;8.30;3.08;;;;;;;;;;5073193;28;20032;-62
2023/09/30 05:31:48;;;;;;;12.32;3.58;;;;;;;;;;5073785;28;20127;-62
2023/09/30 05:34:14;;;;;;;12.02;4.03;;;;;;;;;;5054327;28;20047;-62
2023/09/30 05:36:40;;;;;;;11.23;3.90;;;;;;;;;;5074584;28;20028;-62
2023/09/30 05:39:10;;;;;;;9.68;3.65;;;;;;;;;;5073981;28;20044;-62
2023/09/30 05:41:37;;;;;;;14.38;3.97;;;;;;;;;;5074095;28;20036;-62
2023/09/30 05:44:03;;;;;;;12.88;4.28;;;;;;;;;;5073665;28;20030;-62
2023/09/30 05:46:31;;;;;;;10.93;3.83;;;;;;;;;;5073211;28;20112;-62
2023/09/30 05:48:57;;;;;;;12.35;4.10;;;;;;;;;;5073818;28;21237;-63
2023/09/30 05:51:23;;;;;;;14.68;4.95;;;;;;;;;;5073372;28;20054;-62
2023/09/30 05:53:49;;;;;;;20.10;5.30;;;;;;;;;;5073733;28;20040;-62
2023/09/30 05:56:15;;;;;;;13.55;5.10;;;;;;;;;;5073494;28;20028;-63
2023/09/30 05:58:44;;;;;;;13.02;4.78;;;;;;;;;;5071149;28;20031;-62
2023/09/30 06:01:11;;;;;;;15.13;5.15;;;;;;;;;;5070658;28;20027;-63
2023/09/30 06:03:40;;;;;;;12.15;4.70;;;;;;;;;;5073854;28;20032;-63
2023/09/30 06:06:12;;;;;;;11.82;4.72;;;;;;;;;;5071641;28;20643;-62
2023/09/30 06:08:39;;;;;;;17.50;5.80;;;;;;;;;;5072788;28;20044;-62
2023/09/30 06:11:05;;;;;;;11.57;4.80;;;;;;;;;;5072890;28;20363;-62
2023/09/30 06:13:33;;;;;;;12.65;5.10;;;;;;;;;;5074001;28;20533;-62
2023/09/30 06:15:59;;;;;;;14.57;5.53;;;;;;;;;;5074221;28;20040;-62
2023/09/30 06:18:25;;;;;;;13.82;5.40;;;;;;;;;;5072470;28;20434;-63
2023/09/30 06:20:52;;;;;;;10.27;5.18;;;;;;;;;;5073259;28;20024;-62
2023/09/30 06:23:18;;;;;;;14.05;5.65;;;;;;;;;;5073090;28;20032;-62
2023/09/30 06:25:44;;;;;;;11.10;5.40;;;;;;;;;;5074175;28;20040;-62
2023/09/30 06:28:10;;;;;;;9.88;4.93;;;;;;;;;;5072877;28;20098;-63
2023/09/30 06:30:37;;;;;;;13.50;6.00;;;;;;;;;;5074796;28;20570;-62
2023/09/30 06:33:04;;;;;;;15.30;5.85;;;;;;;;;;5053881;28;20035;-62
2023/09/30 06:35:37;;;;;;;12.52;5.60;;;;;;;;;;5073567;28;20035;-63
2023/09/30 06:38:03;;;;;;;15.55;6.43;;;;;;;;;;5072858;28;20132;-62
2023/09/30 06:40:29;;;;;;;15.13;5.22;;;;;;;;;;5073785;28;20068;-62
2023/09/30 06:42:55;;;;;;;12.73;5.57;;;;;;;;;;5073010;28;20060;-62
2023/09/30 06:45:21;;;;;;;11.45;5.63;;;;;;;;;;5072997;28;20054;-62
2023/09/30 06:47:48;;;;;;;12.25;5.82;;;;;;;;;;5073485;28;20027;-62
2023/09/30 06:50:17;;;;;;;13.30;5.85;;;;;;;;;;5072239;28;21167;-62
2023/09/30 06:52:49;;;;;;;11.77;5.78;;;;;;;;;;5074110;28;20650;-63
2023/09/30 06:55:16;;;;;;;15.90;6.35;;;;;;;;;;5076087;28;20644;-62
2023/09/30 06:57:42;;;;;;;14.73;6.22;;;;;;;;;;5076081;28;20151;-63
2023/09/30 07:00:13;;;;;;;11.70;5.50;;;;;;;;;;5065161;28;20028;-63
2023/09/30 07:02:40;;;;;;;13.65;5.63;;;;;;;;;;5075415;28;21722;-62
2023/09/30 07:05:09;;;;;;;11.85;5.28;;;;;;;;;;5075060;28;20026;-62
2023/09/30 07:07:36;;;;;;;12.48;5.35;;;;;;;;;;5075821;28;20096;-62
2023/09/30 07:10:02;;;;;;;14.77;5.63;;;;;;;;;;5071269;27;20024;-62
2023/09/30 07:12:31;;;;;;;14.38;5.55;;;;;;;;;;5071037;28;20502;-62
2023/09/30 07:14:57;;;;;;;13.50;5.80;;;;;;;;;;5070891;28;20028;-62
2023/09/30 07:17:23;;;;;;;14.88;5.38;;;;;;;;;;5070565;28;20027;-62
2023/09/30 07:19:50;;;;;;;16.65;5.75;;;;;;;;;;5071676;28;20032;-63
2023/09/30 07:22:16;;;;;;;12.27;5.80;;;;;;;;;;5070823;28;20028;-62
2023/09/30 07:24:42;;;;;;;16.30;6.30;;;;;;;;;;5070850;28;20038;-62
2023/09/30 07:27:08;;;;;;;15.50;6.68;;;;;;;;;;5072152;28;20035;-62
2023/09/30 07:29:34;;;;;;;15.23;5.95;;;;;;;;;;5071193;28;20165;-63
2023/09/30 07:32:01;;;;;;;12.70;5.63;;;;;;;;;;5071238;27;20106;-63
2023/09/30 07:34:27;;;;;;;14.15;5.47;;;;;;;;;;5071049;28;20035;-62
2023/09/30 07:36:53;;;;;;;12.98;6.13;;;;;;;;;;5071228;28;20032;-63
2023/09/30 07:39:20;;;;;;;18.08;6.45;;;;;;;;;;5071129;28;20047;-62
2023/09/30 07:41:46;;;;;;;14.77;5.95;;;;;;;;;;5071165;28;20700;-62
2023/09/30 07:44:12;;;;;;;13.75;5.78;;;;;;;;;;5071223;28;20036;-62
2023/09/30 07:46:38;;;;;;;11.35;5.90;;;;;;;;;;5071096;28;20028;-62
2023/09/30 07:49:06;;;;;;;15.27;6.70;;;;;;;;;;5071427;28;20086;-62
2023/09/30 07:51:33;;;;;;;16.52;5.95;;;;;;;;;;5071372;28;20028;-63
2023/09/30 07:53:59;;;;;;;13.48;6.35;;;;;;;;;;5071645;27;20063;-62
2023/09/30 07:56:25;;;;;;;18.20;6.50;;;;;;;;;;5070880;27;20657;-62
2023/09/30 07:58:51;;;;;;;15.40;6.43;;;;;;;;;;5070231;28;20485;-63
2023/09/30 08:01:17;;;;;;;13.43;6.20;;;;;;;;;;5071106;28;20024;-62
2023/09/30 08:03:44;;;;;;;16.30;6.70;;;;;;;;;;5069332;28;20496;-63
2023/09/30 08:06:10;;;;;;;13.90;6.22;;;;;;;;;;5070121;28;20024;-62
2023/09/30 08:08:37;;;;;;;13.55;6.30;;;;;;;;;;5070018;28;20197;-62
2023/09/30 08:11:04;;;;;;;14.30;7.07;;;;;;;;;;5070044;28;20458;-63
2023/09/30 08:13:30;;;;;;;16.38;7.55;;;;;;;;;;5069960;28;20242;-62
2023/09/30 08:15:57;;;;;;;15.25;6.15;;;;;;;;;;5070619;27;20032;-62
2023/09/30 08:18:23;;;;;;;14.27;6.35;;;;;;;;;;5070110;28;20028;-62
2023/09/30 08:20:49;;;;;;;12.88;5.60;;;;;;;;;;5070577;28;20028;-63
2023/09/30 08:23:15;;;;;;;13.05;6.15;;;;;;;;;;5069494;28;20103;-62
2023/09/30 08:25:41;;;;;;;13.68;6.43;;;;;;;;;;5070936;28;20030;-62
2023/09/30 08:28:09;;;;;;;15.95;6.40;;;;;;;;;;5069895;28;20131;-62
2023/09/30 08:30:35;;;;;;;14.23;6.40;;;;;;;;;;5069416;28;20044;-63
2023/09/30 08:33:01;;;;;;;13.63;5.78;;;;;;;;;;5069787;27;20035;-62
2023/09/30 08:35:27;;;;;;;20.23;6.30;;;;;;;;;;5068835;27;21431;-62
2023/09/30 08:37:53;;;;;;;15.25;6.13;;;;;;;;;;5069589;28;20040;-62
2023/09/30 08:40:22;;;;;;;18.05;6.25;;;;;;;;;;5069235;28;20039;-62
2023/09/30 08:42:54;;;;;;;12.57;5.65;;;;;;;;;;5069457;28;20487;-63
2023/09/30 08:45:20;;;;;;;13.23;5.30;;;;;;;;;;5068136;28;20761;-63
2023/09/30 08:47:47;;;;;;;14.90;4.40;;;;;;;;;;5069651;27;20028;-62
2023/09/30 08:50:13;;;;;;;10.40;4.72;;;;;;;;;;5069430;28;20028;-63
2023/09/30 08:52:44;;;;;;;19.42;5.05;;;;;;;;;;5056454;28;20119;-63
2023/09/30 08:55:10;;;;;;;11.43;4.40;;;;;;;;;;5069115;28;20028;-63
2023/09/30 08:57:39;;;;;;;16.30;5.20;;;;;;;;;;5069093;28;20483;-63
2023/09/30 09:00:06;;;;;;;12.00;4.75;;;;;;;;;;5068914;28;20035;-63
2023/09/30 09:02:35;;;;;;;14.23;4.55;;;;;;;;;;5049490;28;20759;-62
2023/09/30 09:05:02;;;;;;;12.45;5.25;;;;;;;;;;5068144;28;20126;-63
2023/09/30 09:07:28;;;;;;;14.20;5.82;;;;;;;;;;5068933;28;20051;-63
2023/09/30 09:10:07;;;;;;;14.45;5.00;;;;;;;;;;5067449;28;20098;-62
2023/09/30 09:12:34;;;;;;;15.52;5.85;;;;;;;;;;5065989;28;20494;-62
2023/09/30 09:15:00;;;;;;;11.25;5.15;;;;;;;;;;5067925;28;20150;-62
2023/09/30 09:17:41;;;;;;;15.80;5.38;;;;;;;;;;5067578;28;20035;-62
2023/09/30 09:20:09;;;;;;;16.20;5.88;;;;;;;;;;5067363;28;20038;-63
2023/09/30 09:22:42;;;;;;;16.17;5.72;;;;;;;;;;5068721;28;20031;-62
2023/09/30 09:25:09;;;;;;;16.75;5.20;;;;;;;;;;5069563;28;20378;-63
2023/09/30 09:27:36;;;;;;;16.35;5.22;;;;;;;;;;5068722;28;20833;-63
2023/09/30 09:30:20;;;;;;;14.80;4.88;;;;;;;;;;5070157;28;20047;-63
2023/09/30 09:33:02;;;;;;;14.48;3.90;;;;;;;;;;5051785;28;20034;-63
2023/09/30 09:35:30;;;;;;;13.70;3.38;;;;;;;;;;5071270;28;20035;-63
2023/09/30 09:38:06;;;;;;;12.45;3.83;;;;;;;;;;5069708;28;20360;-63
2023/09/30 09:40:33;;;;;;;12.40;3.28;;;;;;;;;;5070161;28;20024;-63
2023/09/30 09:43:02;;;;;;;9.77;3.00;;;;;;;;;;5069975;28;20024;-63
2023/09/30 09:45:32;;;;;;;11.23;3.00;;;;;;;;;;5068338;28;20117;-62
2023/09/30 09:47:58;;;;;;;8.07;2.70;;;;;;;;;;5069585;28;20058;-63
2023/09/30 09:50:24;;;;;;;12.07;3.10;;;;;;;;;;5068775;28;20093;-63
2023/09/30 09:52:55;;;;;;;12.98;3.60;;;;;;;;;;5069626;28;20549;-63
2023/09/30 09:55:24;;;;;;;15.30;3.33;;;;;;;;;;5069200;28;20105;-63
2023/09/30 09:57:51;;;;;;;14.48;3.45;;;;;;;;;;5069173;28;20020;-63
2023/09/30 10:00:19;;;;;;;10.98;2.90;;;;;;;;;;5068515;28;20043;-62
2023/09/30 10:02:48;;;;;;;12.05;3.20;;;;;;;;;;5068926;28;20055;-62
2023/09/30 10:05:18;;;;;;;14.07;3.20;;;;;;;;;;5069055;28;20101;-63
2023/09/30 10:07:51;;;;;;;12.43;2.88;;;;;;;;;;5065934;28;20188;-63
2023/09/30 10:10:19;;;;;;;9.98;2.67;;;;;;;;;;5066747;28;20032;-62
2023/09/30 10:12:46;;;;;;;10.77;2.53;;;;;;;;;;5067854;28;20777;-63
2023/09/30 10:15:27;;;;;;;13.68;2.97;;;;;;;;;;5068375;28;20552;-63
2023/09/30 10:18:03;;;;;;;10.30;2.40;;;;;;;;;;5066258;28;20113;-63
2023/09/30 10:20:30;;;;;;;7.70;2.40;;;;;;;;;;5067589;28;20129;-63
2023/09/30 10:23:15;;;;;;;12.07;3.03;;;;;;;;;;5066996;28;20032;-63
2023/09/30 10:25:46;;;;;;;9.60;2.00;;;;;;;;;;5068245;28;20031;-63
2023/09/30 10:28:31;;;;;;;12.13;2.35;;;;;;;;;;5068889;28;20032;-63
2023/09/30 10:31:13;;;;;;;7.63;2.28;;;;;;;;;;5072953;27;20794;-63
2023/09/30 10:33:58;;;;;;;12.20;2.72;;;;;;;;;;5069901;28;20023;-62
2023/09/30 10:36:30;;;;;;;11.25;2.20;;;;;;;;;;5072537;28;20043;-63
2023/09/30 10:38:56;;;;;;;10.70;2.30;;;;;;;;;;5072685;28;20032;-62
2023/09/30 10:41:41;;;;;;;10.48;2.42;;;;;;;;;;5072955;28;20494;-62
2023/09/30 10:44:25;;;;;;;11.23;2.00;;;;;;;;;;5072888;28;20019;-63
2023/09/30 10:46:55;;;;;;;11.40;2.33;;;;;;;;;;5072275;27;20097;-63
2023/09/30 10:49:24;;;;;;;13.10;2.03;;;;;;;;;;5072106;28;20034;-63
2023/09/30 10:51:57;;;;;;;10.95;2.28;;;;;;;;;;5071934;28;20123;-63
2023/09/30 10:54:27;;;;;;;8.40;2.50;;;;;;;;;;5071003;27;20024;-63
2023/09/30 10:56:54;;;;;;;8.63;1.73;;;;;;;;;;5071989;28;20055;-63
2023/09/30 10:59:20;;;;;;;7.78;2.00;;;;;;;;;;5072260;28;20475;-62
2023/09/30 11:01:46;;;;;;;8.35;2.00;;;;;;;;;;5071263;28;20035;-63
2023/09/30 11:04:12;;;;;;;9.90;2.00;;;;;;;;;;5073037;28;20820;-63
2023/09/30 11:06:42;;;;;;;10.50;2.17;;;;;;;;;;5072049;28;20036;-63
2023/09/30 11:09:12;;;;;;;8.68;1.60;;;;;;;;;;5072345;28;20028;-63
2023/09/30 11:11:49;;;;;;;7.53;2.03;;;;;;;;;;5070779;28;21853;-63
2023/09/30 11:14:21;;;;;;;7.03;2.03;;;;;;;;;;5072138;27;20036;-62
2023/09/30 11:16:47;;;;;;;8.48;1.92;;;;;;;;;;5070181;28;20044;-63
2023/09/30 11:19:14;;;;;;;7.05;2.45;;;;;;;;;;5069903;28;20135;-63
2023/09/30 11:21:41;;;;;;;10.48;2.20;;;;;;;;;;5070500;28;20027;-63
2023/09/30 11:24:08;;;;;;;8.50;1.50;;;;;;;;;;5072673;28;20064;-63
2023/09/30 11:26:34;;;;;;;6.95;1.80;;;;;;;;;;5072798;28;20032;-63
2023/09/30 11:29:07;;;;;;;8.98;2.13;;;;;;;;;;5070966;28;20030;-62
2023/09/30 11:31:34;;;;;;;9.70;3.00;;;;;;;;;;5072658;28;20051;-62
2023/09/30 11:34:04;;;;;;;7.68;1.60;;;;;;;;;;5071361;28;20032;-62
2023/09/30 11:36:34;;;;;;;9.68;1.85;;;;;;;;;;5072072;28;21254;-63
2023/09/30 11:39:03;;;;;;;9.73;1.77;;;;;;;;;;5069705;28;21610;-63
2023/09/30 11:41:39;;;;;;;8.63;1.88;;;;;;;;;;5070058;28;20200;-62
2023/09/30 11:44:14;;;;;;;6.43;1.30;;;;;;;;;;5070724;27;20118;-62
2023/09/30 11:46:50;;;;;;;7.28;1.88;;;;;;;;;;5070634;28;20011;-63
2023/09/30 11:49:25;;;;;;;8.57;1.95;;;;;;;;;;5070526;28;20036;-63
2023/09/30 11:51:51;;;;;;;9.90;1.90;;;;;;;;;;5071114;28;20235;-62
2023/09/30 11:54:17;;;;;;;8.73;1.60;;;;;;;;;;5070342;28;20036;-62
2023/09/30 11:56:43;;;;;;;8.38;1.77;;;;;;;;;;5070357;28;20111;-63
2023/09/30 11:59:12;;;;;;;7.05;2.03;;;;;;;;;;5068063;28;20032;-62
2023/09/30 12:01:39;;;;;;;12.40;1.90;;;;;;;;;;5070023;27;20032;-63
2023/09/30 12:04:06;;;;;;;8.07;1.55;;;;;;;;;;5049824;28;20023;-63
2023/09/30 12:06:34;;;;;;;8.15;1.58;;;;;;;;;;5068975;28;20038;-63
2023/09/30 12:09:00;;;;;;;10.65;2.05;;;;;;;;;;5069383;27;20028;-62
2023/09/30 12:11:26;;;;;;;7.55;1.95;;;;;;;;;;5070310;28;20036;-63
2023/09/30 12:13:52;;;;;;;7.43;1.90;;;;;;;;;;5070108;27;20134;-63
2023/09/30 12:16:18;;;;;;;7.60;1.30;;;;;;;;;;5070381;28;20032;-62
2023/09/30 12:18:45;;;;;;;9.77;1.55;;;;;;;;;;5070533;28;20064;-63
2023/09/30 12:21:13;;;;;;;10.45;1.67;;;;;;;;;;5070697;28;20027;-63
2023/09/30 12:23:39;;;;;;;8.38;1.83;;;;;;;;;;5071008;28;20022;-62
2023/09/30 12:26:05;;;;;;;12.10;2.63;;;;;;;;;;5069822;28;20050;-63
2023/09/30 12:28:32;;;;;;;8.73;2.17;;;;;;;;;;5070445;28;21909;-63
2023/09/30 12:30:58;;;;;;;6.28;1.55;;;;;;;;;;5070970;28;20142;-63
2023/09/30 12:33:25;;;;;;;8.82;1.85;;;;;;;;;;5069340;28;20066;-63
2023/09/30 12:35:51;;;;;;;7.93;2.13;;;;;;;;;;5067255;28;20035;-62
2023/09/30 12:38:17;;;;;;;9.70;1.92;;;;;;;;;;5068183;28;20794;-62
2023/09/30 12:40:43;;;;;;;9.30;1.83;;;;;;;;;;5066569;28;20372;-63
2023/09/30 12:43:10;;;;;;;8.75;2.03;;;;;;;;;;5066053;28;20139;-63
2023/09/30 12:45:38;;;;;;;12.85;1.90;;;;;;;;;;5066254;27;20034;-62
2023/09/30 12:48:04;;;;;;;10.02;1.98;;;;;;;;;;5067541;28;20131;-63
2023/09/30 12:50:32;;;;;;;9.48;2.00;;;;;;;;;;5066366;28;20131;-63
2023/09/30 12:52:59;;;;;;;7.55;1.90;;;;;;;;;;5063137;28;20024;-62
2023/09/30 12:55:26;;;;;;;6.90;1.85;;;;;;;;;;5066377;28;20042;-63
2023/09/30 12:57:53;;;;;;;8.70;2.00;;;;;;;;;;5066206;28;20027;-63
2023/09/30 13:00:21;;;;;;;8.68;1.83;;;;;;;;;;5066753;28;20036;-63
2023/09/30 13:02:48;;;;;;;5.97;1.42;;;;;;;;;;5064028;28;20927;-63
2023/09/30 13:05:14;;;;;;;11.00;2.30;;;;;;;;;;5066649;28;21474;-63
2023/09/30 13:07:40;;;;;;;10.50;2.15;;;;;;;;;;5064280;28;20057;-63
2023/09/30 13:10:08;;;;;;;10.88;2.08;;;;;;;;;;5065957;28;20104;-63
2023/09/30 13:12:34;;;;;;;12.00;2.13;;;;;;;;;;5066547;28;21112;-68
2023/09/30 13:15:00;;;;;;;6.78;1.50;;;;;;;;;;5046300;28;20982;-68
2023/09/30 13:17:26;;;;;;;8.68;1.92;;;;;;;;;;5048110;28;20024;-68
2023/09/30 13:19:52;;;;;;;5.65;1.70;;;;;;;;;;5065553;28;20028;-68
2023/09/30 13:22:19;;;;;;;8.05;1.63;;;;;;;;;;5065802;28;20127;-68
2023/09/30 13:24:45;;;;;;;6.80;1.50;;;;;;;;;;5066090;28;20032;-68
2023/09/30 13:27:11;;;;;;;6.63;1.60;;;;;;;;;;5065290;28;20024;-68
2023/09/30 13:29:38;;;;;;;5.60;1.55;;;;;;;;;;5066742;28;20071;-68
2023/09/30 13:32:04;;;;;;;9.73;2.13;;;;;;;;;;5066311;28;20040;-68
2023/09/30 13:34:30;;;;;;;9.88;2.08;;;;;;;;;;5065554;28;20118;-68
2023/09/30 13:36:57;;;;;;;9.85;2.45;;;;;;;;;;5066011;28;20520;-68
2023/09/30 13:39:24;;;;;;;4.75;1.33;;;;;;;;;;5066846;28;20035;-68
2023/09/30 13:41:51;;;;;;;7.65;1.55;;;;;;;;;;5065318;28;20039;-68
2023/09/30 13:44:18;;;;;;;8.18;1.73;;;;;;;;;;5065510;28;20074;-68
2023/09/30 13:46:45;;;;;;;7.65;1.90;;;;;;;;;;5065530;28;20036;-68
2023/09/30 13:49:11;;;;;;;8.30;1.95;;;;;;;;;;5066650;28;20121;-68
2023/09/30 13:51:38;;;;;;;10.52;1.80;;;;;;;;;;5065510;28;20035;-68
2023/09/30 13:54:07;;;;;;;6.25;1.40;;;;;;;;;;5066018;28;20852;-68
2023/09/30 13:56:33;;;;;;;7.68;1.80;;;;;;;;;;5066344;28;20032;-68
2023/09/30 13:59:00;;;;;;;10.50;2.00;;;;;;;;;;5064270;28;20039;-68
2023/09/30 14:01:26;;;;;;;9.75;1.80;;;;;;;;;;5064223;28;20510;-68
2023/09/30 14:03:57;;;;;;;7.60;1.75;;;;;;;;;;5066769;28;20803;-68
2023/09/30 14:06:23;;;;;;;8.88;1.88;;;;;;;;;;5069213;28;20028;-68
2023/09/30 14:08:50;;;;;;;6.93;1.52;;;;;;;;;;5070453;28;20073;-68
2023/09/30 14:11:16;;;;;;;7.95;1.88;;;;;;;;;;5069598;28;20110;-68
2023/09/30 14:13:42;;;;;;;9.40;1.80;;;;;;;;;;5069937;27;20046;-68
2023/09/30 14:16:09;;;;;;;5.45;1.20;;;;;;;;;;5068362;28;20073;-68
2023/09/30 14:18:36;;;;;;;5.97;1.50;;;;;;;;;;5067492;28;22075;-68
2023/09/30 14:21:02;;;;;;;5.90;1.48;;;;;;;;;;5068626;28;20034;-68
2023/09/30 14:23:29;;;;;;;7.32;1.60;;;;;;;;;;5067725;28;20055;-68
2023/09/30 14:25:55;;;;;;;6.85;1.80;;;;;;;;;;5068057;28;20105;-68
2023/09/30 14:28:22;;;;;;;8.48;1.88;;;;;;;;;;5070187;28;20035;-68
2023/09/30 14:30:50;;;;;;;8.98;2.42;;;;;;;;;;5070983;28;20090;-68
2023/09/30 14:33:16;;;;;;;8.85;2.05;;;;;;;;;;5070224;27;20150;-68
2023/09/30 14:35:45;;;;;;;7.28;1.48;;;;;;;;;;5070817;28;20849;-68
2023/09/30 14:38:12;;;;;;;7.65;1.52;;;;;;;;;;5068271;28;20075;-68